sensor_id;sensor_type;location;lat;lon;timestamp;P1;durP1;ratioP1;P2;durP2;ratioP2
34876;SDS011;21086;44.780;17.194;2022-09-03T00:02:48;5.50;;;0.90;;
34876;SDS011;21086;44.780;17.194;2022-09-03T00:05:22;3.08;;;0.98;;
34876;SDS011;21086;44.780;17.194;2022-09-03T00:08:05;2.00;;;1.13;;
34876;SDS011;21086;44.780;17.194;2022-09-03T00:10:58;2.75;;;1.10;;
34876;SDS011;21086;44.780;17.194;2022-09-03T00:13:41;6.60;;;1.73;;
34876;SDS011;21086;44.780;17.194;2022-09-03T00:16:13;5.05;;;1.30;;
34876;SDS011;21086;44.780;17.194;2022-09-03T00:18:54;1.63;;;1.20;;
34876;SDS011;21086;44.780;17.194;2022-09-03T00:24:55;1.52;;;1.23;;
34876;SDS011;21086;44.780;17.194;2022-09-03T00:27:28;3.63;;;1.60;;
34876;SDS011;21086;44.780;17.194;2022-09-03T00:30:03;2.33;;;1.20;;
34876;SDS011;21086;44.780;17.194;2022-09-03T00:32:47;1.85;;;1.05;;
34876;SDS011;21086;44.780;17.194;2022-09-03T00:35:45;2.50;;;1.30;;
34876;SDS011;21086;44.780;17.194;2022-09-03T00:38:16;2.67;;;1.02;;
34876;SDS011;21086;44.780;17.194;2022-09-03T00:46:25;3.97;;;1.23;;
34876;SDS011;21086;44.780;17.194;2022-09-03T00:57:49;2.13;;;1.08;;
34876;SDS011;21086;44.780;17.194;2022-09-03T01:00:22;2.38;;;1.25;;
34876;SDS011;21086;44.780;17.194;2022-09-03T01:02:52;2.30;;;1.27;;
34876;SDS011;21086;44.780;17.194;2022-09-03T01:08:11;4.07;;;1.15;;
34876;SDS011;21086;44.780;17.194;2022-09-03T01:11:12;4.25;;;1.00;;
34876;SDS011;21086;44.780;17.194;2022-09-03T01:16:19;2.65;;;1.00;;
34876;SDS011;21086;44.780;17.194;2022-09-03T01:27:43;1.80;;;1.27;;
34876;SDS011;21086;44.780;17.194;2022-09-03T01:30:32;6.75;;;1.70;;
34876;SDS011;21086;44.780;17.194;2022-09-03T01:36:10;1.80;;;1.20;;
34876;SDS011;21086;44.780;17.194;2022-09-03T01:39:01;3.92;;;1.20;;
34876;SDS011;21086;44.780;17.194;2022-09-03T01:47:29;6.18;;;0.93;;
34876;SDS011;21086;44.780;17.194;2022-09-03T01:53:17;2.80;;;1.90;;
34876;SDS011;21086;44.780;17.194;2022-09-03T01:58:36;4.10;;;1.20;;
34876;SDS011;21086;44.780;17.194;2022-09-03T02:01:13;2.65;;;0.85;;
34876;SDS011;21086;44.780;17.194;2022-09-03T02:03:46;2.78;;;1.20;;
34876;SDS011;21086;44.780;17.194;2022-09-03T02:06:16;3.92;;;1.10;;
34876;SDS011;21086;44.780;17.194;2022-09-03T02:08:46;3.28;;;0.93;;
34876;SDS011;21086;44.780;17.194;2022-09-03T02:11:12;2.17;;;1.10;;
34876;SDS011;21086;44.780;17.194;2022-09-03T02:13:40;1.83;;;1.00;;
34876;SDS011;21086;44.780;17.194;2022-09-03T02:16:35;1.90;;;1.45;;
34876;SDS011;21086;44.780;17.194;2022-09-03T02:19:04;1.70;;;1.13;;
34876;SDS011;21086;44.780;17.194;2022-09-03T02:21:37;1.90;;;1.10;;
34876;SDS011;21086;44.780;17.194;2022-09-03T02:24:06;2.08;;;1.30;;
34876;SDS011;21086;44.780;17.194;2022-09-03T02:26:34;1.90;;;1.10;;
34876;SDS011;21086;44.780;17.194;2022-09-03T02:29:02;1.60;;;1.35;;
34876;SDS011;21086;44.780;17.194;2022-09-03T02:31:30;1.92;;;1.27;;
34876;SDS011;21086;44.780;17.194;2022-09-03T02:33:58;1.75;;;1.10;;
34876;SDS011;21086;44.780;17.194;2022-09-03T02:36:35;3.85;;;1.08;;
34876;SDS011;21086;44.780;17.194;2022-09-03T02:39:05;4.25;;;1.30;;
34876;SDS011;21086;44.780;17.194;2022-09-03T02:41:32;1.65;;;1.00;;
34876;SDS011;21086;44.780;17.194;2022-09-03T02:46:51;2.75;;;1.05;;
34876;SDS011;21086;44.780;17.194;2022-09-03T02:49:22;1.88;;;1.35;;
34876;SDS011;21086;44.780;17.194;2022-09-03T02:51:48;5.22;;;1.40;;
34876;SDS011;21086;44.780;17.194;2022-09-03T02:54:15;7.82;;;1.58;;
34876;SDS011;21086;44.780;17.194;2022-09-03T02:56:46;3.13;;;1.48;;
34876;SDS011;21086;44.780;17.194;2022-09-03T02:59:15;4.25;;;1.50;;
34876;SDS011;21086;44.780;17.194;2022-09-03T03:01:43;4.97;;;1.80;;
34876;SDS011;21086;44.780;17.194;2022-09-03T03:04:12;2.60;;;1.50;;
34876;SDS011;21086;44.780;17.194;2022-09-03T03:06:39;3.25;;;1.27;;
34876;SDS011;21086;44.780;17.194;2022-09-03T03:09:06;4.53;;;1.17;;
34876;SDS011;21086;44.780;17.194;2022-09-03T03:11:33;2.20;;;1.00;;
34876;SDS011;21086;44.780;17.194;2022-09-03T03:14:02;2.05;;;1.17;;
34876;SDS011;21086;44.780;17.194;2022-09-03T03:16:29;3.22;;;1.10;;
34876;SDS011;21086;44.780;17.194;2022-09-03T03:18:56;5.85;;;1.45;;
34876;SDS011;21086;44.780;17.194;2022-09-03T03:21:23;2.38;;;1.25;;
34876;SDS011;21086;44.780;17.194;2022-09-03T03:23:50;1.55;;;1.10;;
34876;SDS011;21086;44.780;17.194;2022-09-03T03:26:17;5.25;;;1.30;;
34876;SDS011;21086;44.780;17.194;2022-09-03T03:28:45;6.72;;;1.30;;
34876;SDS011;21086;44.780;17.194;2022-09-03T03:31:15;6.05;;;1.33;;
34876;SDS011;21086;44.780;17.194;2022-09-03T03:33:49;5.13;;;1.70;;
34876;SDS011;21086;44.780;17.194;2022-09-03T03:36:20;5.13;;;1.52;;
34876;SDS011;21086;44.780;17.194;2022-09-03T03:38:48;2.90;;;1.10;;
34876;SDS011;21086;44.780;17.194;2022-09-03T03:41:20;4.35;;;1.33;;
34876;SDS011;21086;44.780;17.194;2022-09-03T03:43:51;5.30;;;1.42;;
34876;SDS011;21086;44.780;17.194;2022-09-03T03:46:21;3.97;;;1.63;;
34876;SDS011;21086;44.780;17.194;2022-09-03T03:48:49;2.70;;;1.40;;
34876;SDS011;21086;44.780;17.194;2022-09-03T03:51:17;2.20;;;1.30;;
34876;SDS011;21086;44.780;17.194;2022-09-03T03:53:44;4.35;;;1.42;;
34876;SDS011;21086;44.780;17.194;2022-09-03T03:56:12;2.42;;;1.27;;
34876;SDS011;21086;44.780;17.194;2022-09-03T03:58:41;3.83;;;1.48;;
34876;SDS011;21086;44.780;17.194;2022-09-03T04:03:37;9.98;;;1.73;;
34876;SDS011;21086;44.780;17.194;2022-09-03T04:06:05;1.90;;;1.35;;
34876;SDS011;21086;44.780;17.194;2022-09-03T04:08:33;4.78;;;1.55;;
34876;SDS011;21086;44.780;17.194;2022-09-03T04:11:03;3.30;;;1.35;;
34876;SDS011;21086;44.780;17.194;2022-09-03T04:13:36;1.52;;;1.40;;
34876;SDS011;21086;44.780;17.194;2022-09-03T04:18:43;3.63;;;1.40;;
34876;SDS011;21086;44.780;17.194;2022-09-03T04:21:12;4.68;;;1.63;;
34876;SDS011;21086;44.780;17.194;2022-09-03T04:23:41;3.88;;;1.08;;
34876;SDS011;21086;44.780;17.194;2022-09-03T04:26:10;5.88;;;1.85;;
34876;SDS011;21086;44.780;17.194;2022-09-03T04:28:39;6.22;;;2.00;;
34876;SDS011;21086;44.780;17.194;2022-09-03T04:31:08;5.43;;;1.52;;
34876;SDS011;21086;44.780;17.194;2022-09-03T04:33:36;8.25;;;1.35;;
34876;SDS011;21086;44.780;17.194;2022-09-03T04:38:38;3.33;;;1.48;;
34876;SDS011;21086;44.780;17.194;2022-09-03T04:41:07;2.05;;;1.52;;
34876;SDS011;21086;44.780;17.194;2022-09-03T04:43:37;3.72;;;1.58;;
34876;SDS011;21086;44.780;17.194;2022-09-03T04:46:05;2.85;;;1.42;;
34876;SDS011;21086;44.780;17.194;2022-09-03T04:48:41;4.60;;;1.40;;
34876;SDS011;21086;44.780;17.194;2022-09-03T04:51:10;5.32;;;1.50;;
34876;SDS011;21086;44.780;17.194;2022-09-03T04:53:40;1.42;;;1.30;;
34876;SDS011;21086;44.780;17.194;2022-09-03T04:56:12;6.50;;;1.50;;
34876;SDS011;21086;44.780;17.194;2022-09-03T04:58:41;4.28;;;1.30;;
34876;SDS011;21086;44.780;17.194;2022-09-03T05:01:10;3.25;;;1.58;;
34876;SDS011;21086;44.780;17.194;2022-09-03T05:03:44;7.25;;;1.90;;
34876;SDS011;21086;44.780;17.194;2022-09-03T05:06:12;2.47;;;1.30;;
34876;SDS011;21086;44.780;17.194;2022-09-03T05:08:52;5.30;;;1.40;;
34876;SDS011;21086;44.780;17.194;2022-09-03T05:11:21;4.00;;;2.00;;
34876;SDS011;21086;44.780;17.194;2022-09-03T05:13:49;3.40;;;1.50;;
34876;SDS011;21086;44.780;17.194;2022-09-03T05:20:03;4.57;;;1.80;;
34876;SDS011;21086;44.780;17.194;2022-09-03T05:22:32;1.65;;;1.20;;
34876;SDS011;21086;44.780;17.194;2022-09-03T05:25:00;4.47;;;1.60;;
34876;SDS011;21086;44.780;17.194;2022-09-03T05:27:27;7.43;;;2.22;;
34876;SDS011;21086;44.780;17.194;2022-09-03T05:29:54;4.68;;;1.75;;
34876;SDS011;21086;44.780;17.194;2022-09-03T05:32:21;2.45;;;1.90;;
34876;SDS011;21086;44.780;17.194;2022-09-03T05:34:47;2.47;;;1.80;;
34876;SDS011;21086;44.780;17.194;2022-09-03T05:37:14;2.97;;;1.70;;
34876;SDS011;21086;44.780;17.194;2022-09-03T05:39:41;6.28;;;2.00;;
34876;SDS011;21086;44.780;17.194;2022-09-03T05:42:08;2.53;;;1.45;;
34876;SDS011;21086;44.780;17.194;2022-09-03T05:44:36;4.30;;;2.13;;
34876;SDS011;21086;44.780;17.194;2022-09-03T05:47:04;4.05;;;2.15;;
34876;SDS011;21086;44.780;17.194;2022-09-03T05:49:31;4.90;;;2.45;;
34876;SDS011;21086;44.780;17.194;2022-09-03T05:51:58;3.75;;;2.05;;
34876;SDS011;21086;44.780;17.194;2022-09-03T05:54:25;2.03;;;1.55;;
34876;SDS011;21086;44.780;17.194;2022-09-03T05:56:51;3.58;;;1.70;;
34876;SDS011;21086;44.780;17.194;2022-09-03T05:59:18;4.65;;;2.03;;
34876;SDS011;21086;44.780;17.194;2022-09-03T06:01:45;2.60;;;1.77;;
34876;SDS011;21086;44.780;17.194;2022-09-03T06:04:18;2.00;;;1.50;;
34876;SDS011;21086;44.780;17.194;2022-09-03T06:06:45;1.73;;;1.30;;
34876;SDS011;21086;44.780;17.194;2022-09-03T06:09:17;2.25;;;1.77;;
34876;SDS011;21086;44.780;17.194;2022-09-03T06:11:46;2.90;;;1.70;;
34876;SDS011;21086;44.780;17.194;2022-09-03T06:14:15;4.00;;;1.90;;
34876;SDS011;21086;44.780;17.194;2022-09-03T06:16:43;2.85;;;1.70;;
34876;SDS011;21086;44.780;17.194;2022-09-03T06:19:14;3.47;;;2.05;;
34876;SDS011;21086;44.780;17.194;2022-09-03T06:21:42;3.30;;;2.13;;
34876;SDS011;21086;44.780;17.194;2022-09-03T06:24:16;5.22;;;1.50;;
34876;SDS011;21086;44.780;17.194;2022-09-03T06:26:45;3.08;;;1.33;;
34876;SDS011;21086;44.780;17.194;2022-09-03T06:29:12;3.80;;;1.40;;
34876;SDS011;21086;44.780;17.194;2022-09-03T06:31:39;2.38;;;1.45;;
34876;SDS011;21086;44.780;17.194;2022-09-03T06:34:07;5.53;;;1.60;;
34876;SDS011;21086;44.780;17.194;2022-09-03T06:36:33;4.93;;;2.03;;
34876;SDS011;21086;44.780;17.194;2022-09-03T06:39:00;2.20;;;1.60;;
34876;SDS011;21086;44.780;17.194;2022-09-03T06:41:28;3.88;;;1.67;;
34876;SDS011;21086;44.780;17.194;2022-09-03T06:44:00;4.28;;;2.38;;
34876;SDS011;21086;44.780;17.194;2022-09-03T06:46:30;3.67;;;2.38;;
34876;SDS011;21086;44.780;17.194;2022-09-03T06:48:58;4.28;;;1.90;;
34876;SDS011;21086;44.780;17.194;2022-09-03T06:51:26;4.03;;;1.90;;
34876;SDS011;21086;44.780;17.194;2022-09-03T06:54:02;3.03;;;1.85;;
34876;SDS011;21086;44.780;17.194;2022-09-03T06:56:34;3.83;;;1.88;;
34876;SDS011;21086;44.780;17.194;2022-09-03T06:59:07;4.53;;;2.28;;
34876;SDS011;21086;44.780;17.194;2022-09-03T07:01:35;5.30;;;2.05;;
34876;SDS011;21086;44.780;17.194;2022-09-03T07:04:10;3.03;;;2.20;;
34876;SDS011;21086;44.780;17.194;2022-09-03T07:06:40;2.90;;;1.95;;
34876;SDS011;21086;44.780;17.194;2022-09-03T07:09:09;2.75;;;1.65;;
34876;SDS011;21086;44.780;17.194;2022-09-03T07:11:37;2.78;;;2.00;;
34876;SDS011;21086;44.780;17.194;2022-09-03T07:14:12;3.15;;;1.80;;
34876;SDS011;21086;44.780;17.194;2022-09-03T07:16:40;2.80;;;1.88;;
34876;SDS011;21086;44.780;17.194;2022-09-03T07:19:08;4.15;;;2.38;;
34876;SDS011;21086;44.780;17.194;2022-09-03T07:21:35;4.88;;;1.98;;
34876;SDS011;21086;44.780;17.194;2022-09-03T07:24:03;5.85;;;2.22;;
34876;SDS011;21086;44.780;17.194;2022-09-03T07:26:35;3.08;;;2.08;;
34876;SDS011;21086;44.780;17.194;2022-09-03T07:29:04;6.82;;;3.20;;
34876;SDS011;21086;44.780;17.194;2022-09-03T07:31:34;4.60;;;1.90;;
34876;SDS011;21086;44.780;17.194;2022-09-03T07:34:06;6.95;;;2.15;;
34876;SDS011;21086;44.780;17.194;2022-09-03T07:36:43;10.50;;;2.47;;
34876;SDS011;21086;44.780;17.194;2022-09-03T07:39:16;3.10;;;1.63;;
34876;SDS011;21086;44.780;17.194;2022-09-03T07:41:44;2.20;;;1.60;;
34876;SDS011;21086;44.780;17.194;2022-09-03T07:44:12;1.83;;;1.48;;
34876;SDS011;21086;44.780;17.194;2022-09-03T07:46:41;5.43;;;1.63;;
34876;SDS011;21086;44.780;17.194;2022-09-03T07:49:10;2.53;;;1.65;;
34876;SDS011;21086;44.780;17.194;2022-09-03T07:51:37;5.35;;;2.05;;
34876;SDS011;21086;44.780;17.194;2022-09-03T07:54:05;4.28;;;1.98;;
34876;SDS011;21086;44.780;17.194;2022-09-03T07:56:35;2.58;;;1.75;;
34876;SDS011;21086;44.780;17.194;2022-09-03T07:59:04;2.40;;;1.50;;
34876;SDS011;21086;44.780;17.194;2022-09-03T08:01:31;4.93;;;1.70;;
34876;SDS011;21086;44.780;17.194;2022-09-03T08:04:00;3.60;;;2.00;;
34876;SDS011;21086;44.780;17.194;2022-09-03T08:06:28;3.78;;;1.83;;
34876;SDS011;21086;44.780;17.194;2022-09-03T08:08:57;3.47;;;1.90;;
34876;SDS011;21086;44.780;17.194;2022-09-03T08:11:30;3.47;;;1.35;;
34876;SDS011;21086;44.780;17.194;2022-09-03T08:14:02;1.98;;;1.30;;
34876;SDS011;21086;44.780;17.194;2022-09-03T08:16:33;2.05;;;1.48;;
34876;SDS011;21086;44.780;17.194;2022-09-03T08:19:02;5.00;;;1.50;;
34876;SDS011;21086;44.780;17.194;2022-09-03T08:21:29;3.00;;;1.40;;
34876;SDS011;21086;44.780;17.194;2022-09-03T08:23:57;1.88;;;1.33;;
34876;SDS011;21086;44.780;17.194;2022-09-03T08:26:35;2.15;;;1.60;;
34876;SDS011;21086;44.780;17.194;2022-09-03T08:29:04;3.92;;;1.63;;
34876;SDS011;21086;44.780;17.194;2022-09-03T08:31:32;3.10;;;1.50;;
34876;SDS011;21086;44.780;17.194;2022-09-03T08:34:00;3.78;;;1.60;;
34876;SDS011;21086;44.780;17.194;2022-09-03T08:36:30;6.95;;;1.60;;
34876;SDS011;21086;44.780;17.194;2022-09-03T08:38:58;3.72;;;1.60;;
34876;SDS011;21086;44.780;17.194;2022-09-03T08:41:52;4.38;;;1.67;;
34876;SDS011;21086;44.780;17.194;2022-09-03T08:52:33;5.70;;;1.98;;
34876;SDS011;21086;44.780;17.194;2022-09-03T09:03:33;2.15;;;1.58;;
34876;SDS011;21086;44.780;17.194;2022-09-03T09:06:22;2.20;;;1.50;;
34876;SDS011;21086;44.780;17.194;2022-09-03T09:14:03;5.07;;;1.77;;
34876;SDS011;21086;44.780;17.194;2022-09-03T09:22:00;4.78;;;1.42;;
34876;SDS011;21086;44.780;17.194;2022-09-03T09:24:36;1.95;;;1.17;;
34876;SDS011;21086;44.780;17.194;2022-09-03T09:27:12;2.83;;;1.88;;
34876;SDS011;21086;44.780;17.194;2022-09-03T09:29:45;6.22;;;2.05;;
34876;SDS011;21086;44.780;17.194;2022-09-03T09:32:15;3.78;;;2.38;;
34876;SDS011;21086;44.780;17.194;2022-09-03T09:34:46;3.20;;;1.67;;
34876;SDS011;21086;44.780;17.194;2022-09-03T09:37:17;5.20;;;2.17;;
34876;SDS011;21086;44.780;17.194;2022-09-03T09:39:58;8.88;;;1.88;;
34876;SDS011;21086;44.780;17.194;2022-09-03T09:42:26;3.10;;;1.77;;
34876;SDS011;21086;44.780;17.194;2022-09-03T09:44:56;5.93;;;1.95;;
34876;SDS011;21086;44.780;17.194;2022-09-03T09:47:27;4.57;;;1.83;;
34876;SDS011;21086;44.780;17.194;2022-09-03T09:49:58;3.92;;;1.65;;
34876;SDS011;21086;44.780;17.194;2022-09-03T09:52:27;7.13;;;1.95;;
34876;SDS011;21086;44.780;17.194;2022-09-03T09:55:06;4.72;;;2.00;;
34876;SDS011;21086;44.780;17.194;2022-09-03T09:57:41;5.50;;;1.40;;
34876;SDS011;21086;44.780;17.194;2022-09-03T10:00:17;5.10;;;2.15;;
34876;SDS011;21086;44.780;17.194;2022-09-03T10:02:48;4.60;;;1.95;;
34876;SDS011;21086;44.780;17.194;2022-09-03T10:05:24;5.07;;;2.03;;
34876;SDS011;21086;44.780;17.194;2022-09-03T10:07:56;3.30;;;1.50;;
34876;SDS011;21086;44.780;17.194;2022-09-03T10:10:25;3.72;;;1.50;;
34876;SDS011;21086;44.780;17.194;2022-09-03T10:12:55;3.58;;;1.63;;
34876;SDS011;21086;44.780;17.194;2022-09-03T10:15:30;3.33;;;1.75;;
34876;SDS011;21086;44.780;17.194;2022-09-03T10:18:06;3.78;;;1.48;;
34876;SDS011;21086;44.780;17.194;2022-09-03T10:20:51;3.60;;;1.65;;
34876;SDS011;21086;44.780;17.194;2022-09-03T10:23:46;6.90;;;1.73;;
34876;SDS011;21086;44.780;17.194;2022-09-03T10:26:41;5.00;;;1.58;;
34876;SDS011;21086;44.780;17.194;2022-09-03T10:29:14;4.82;;;1.70;;
34876;SDS011;21086;44.780;17.194;2022-09-03T10:32:19;2.92;;;1.80;;
34876;SDS011;21086;44.780;17.194;2022-09-03T10:38:17;3.17;;;1.63;;
34876;SDS011;21086;44.780;17.194;2022-09-03T10:40:48;5.90;;;1.67;;
34876;SDS011;21086;44.780;17.194;2022-09-03T10:46:27;2.03;;;1.38;;
34876;SDS011;21086;44.780;17.194;2022-09-03T10:51:55;3.08;;;1.83;;
34876;SDS011;21086;44.780;17.194;2022-09-03T10:54:39;2.30;;;1.70;;
34876;SDS011;21086;44.780;17.194;2022-09-03T11:00:14;3.70;;;1.77;;
34876;SDS011;21086;44.780;17.194;2022-09-03T11:02:57;2.60;;;1.52;;
34876;SDS011;21086;44.780;17.194;2022-09-03T11:08:45;1.60;;;1.00;;
34876;SDS011;21086;44.780;17.194;2022-09-03T11:11:33;1.42;;;1.20;;
34876;SDS011;21086;44.780;17.194;2022-09-03T11:14:08;2.15;;;0.88;;
34876;SDS011;21086;44.780;17.194;2022-09-03T11:16:53;1.08;;;0.75;;
34876;SDS011;21086;44.780;17.194;2022-09-03T11:19:32;1.88;;;0.77;;
34876;SDS011;21086;44.780;17.194;2022-09-03T11:22:05;2.53;;;0.93;;
34876;SDS011;21086;44.780;17.194;2022-09-03T11:24:34;1.50;;;0.77;;
34876;SDS011;21086;44.780;17.194;2022-09-03T11:29:59;5.32;;;1.17;;
34876;SDS011;21086;44.780;17.194;2022-09-03T11:35:26;1.00;;;0.70;;
34876;SDS011;21086;44.780;17.194;2022-09-03T11:37:58;3.38;;;0.73;;
34876;SDS011;21086;44.780;17.194;2022-09-03T11:40:32;2.67;;;0.70;;
34876;SDS011;21086;44.780;17.194;2022-09-03T11:43:44;3.22;;;0.57;;
34876;SDS011;21086;44.780;17.194;2022-09-03T11:48:48;1.02;;;0.70;;
34876;SDS011;21086;44.780;17.194;2022-09-03T11:57:13;1.27;;;0.70;;
34876;SDS011;21086;44.780;17.194;2022-09-03T11:59:46;1.88;;;0.80;;
34876;SDS011;21086;44.780;17.194;2022-09-03T12:02:24;1.77;;;0.63;;
34876;SDS011;21086;44.780;17.194;2022-09-03T12:18:30;3.47;;;1.10;;
34876;SDS011;21086;44.780;17.194;2022-09-03T12:26:11;3.05;;;0.80;;
34876;SDS011;21086;44.780;17.194;2022-09-03T12:28:59;1.58;;;0.93;;
34876;SDS011;21086;44.780;17.194;2022-09-03T12:31:27;3.10;;;1.13;;
34876;SDS011;21086;44.780;17.194;2022-09-03T12:34:00;2.10;;;1.10;;
34876;SDS011;21086;44.780;17.194;2022-09-03T12:36:38;4.75;;;0.95;;
34876;SDS011;21086;44.780;17.194;2022-09-03T12:47:04;1.20;;;0.80;;
34876;SDS011;21086;44.780;17.194;2022-09-03T12:50:03;1.15;;;0.93;;
34876;SDS011;21086;44.780;17.194;2022-09-03T12:52:34;1.77;;;1.08;;
34876;SDS011;21086;44.780;17.194;2022-09-03T12:55:05;3.10;;;1.13;;
34876;SDS011;21086;44.780;17.194;2022-09-03T13:00:40;1.40;;;0.90;;
34876;SDS011;21086;44.780;17.194;2022-09-03T13:03:18;1.52;;;0.98;;
34876;SDS011;21086;44.780;17.194;2022-09-03T13:05:56;1.08;;;0.90;;
34876;SDS011;21086;44.780;17.194;2022-09-03T13:08:28;2.38;;;1.02;;
34876;SDS011;21086;44.780;17.194;2022-09-03T13:10:59;2.58;;;1.00;;
34876;SDS011;21086;44.780;17.194;2022-09-03T13:13:31;4.75;;;1.30;;
34876;SDS011;21086;44.780;17.194;2022-09-03T13:18:46;1.90;;;0.90;;
34876;SDS011;21086;44.780;17.194;2022-09-03T13:24:05;5.10;;;0.85;;
34876;SDS011;21086;44.780;17.194;2022-09-03T13:29:38;1.40;;;0.80;;
34876;SDS011;21086;44.780;17.194;2022-09-03T13:32:11;2.00;;;1.10;;
34876;SDS011;21086;44.780;17.194;2022-09-03T13:34:51;1.35;;;0.93;;
34876;SDS011;21086;44.780;17.194;2022-09-03T13:39:59;2.78;;;1.20;;
34876;SDS011;21086;44.780;17.194;2022-09-03T13:42:43;3.55;;;1.70;;
34876;SDS011;21086;44.780;17.194;2022-09-03T13:45:27;1.95;;;1.40;;
34876;SDS011;21086;44.780;17.194;2022-09-03T13:48:14;4.40;;;1.30;;
34876;SDS011;21086;44.780;17.194;2022-09-03T13:51:15;2.60;;;1.70;;
34876;SDS011;21086;44.780;17.194;2022-09-03T13:59:50;3.45;;;1.02;;
34876;SDS011;21086;44.780;17.194;2022-09-03T14:07:55;2.60;;;1.50;;
34876;SDS011;21086;44.780;17.194;2022-09-03T14:10:49;1.98;;;1.48;;
34876;SDS011;21086;44.780;17.194;2022-09-03T14:13:41;2.22;;;1.20;;
34876;SDS011;21086;44.780;17.194;2022-09-03T14:22:07;2.20;;;1.50;;
34876;SDS011;21086;44.780;17.194;2022-09-03T14:24:56;1.63;;;1.13;;
34876;SDS011;21086;44.780;17.194;2022-09-03T14:27:27;2.05;;;1.45;;
34876;SDS011;21086;44.780;17.194;2022-09-03T14:29:59;2.67;;;1.30;;
34876;SDS011;21086;44.780;17.194;2022-09-03T14:32:36;3.58;;;1.50;;
34876;SDS011;21086;44.780;17.194;2022-09-03T14:35:44;1.52;;;1.17;;
34876;SDS011;21086;44.780;17.194;2022-09-03T14:44:30;2.85;;;2.28;;
34876;SDS011;21086;44.780;17.194;2022-09-03T14:50:11;2.28;;;1.17;;
34876;SDS011;21086;44.780;17.194;2022-09-03T14:53:09;2.65;;;1.60;;
34876;SDS011;21086;44.780;17.194;2022-09-03T15:01:18;2.58;;;1.60;;
34876;SDS011;21086;44.780;17.194;2022-09-03T15:15:19;5.18;;;3.10;;
34876;SDS011;21086;44.780;17.194;2022-09-03T15:18:08;2.33;;;1.77;;
34876;SDS011;21086;44.780;17.194;2022-09-03T15:20:52;3.88;;;1.70;;
34876;SDS011;21086;44.780;17.194;2022-09-03T15:26:15;3.80;;;1.70;;
34876;SDS011;21086;44.780;17.194;2022-09-03T15:36:48;2.40;;;1.75;;
34876;SDS011;21086;44.780;17.194;2022-09-03T15:41:52;3.00;;;1.75;;
34876;SDS011;21086;44.780;17.194;2022-09-03T15:44:24;2.88;;;1.60;;
34876;SDS011;21086;44.780;17.194;2022-09-03T15:46:59;4.93;;;1.92;;
34876;SDS011;21086;44.780;17.194;2022-09-03T15:52:49;2.80;;;1.90;;
34876;SDS011;21086;44.780;17.194;2022-09-03T15:55:31;3.00;;;2.05;;
34876;SDS011;21086;44.780;17.194;2022-09-03T16:00:59;3.72;;;2.35;;
34876;SDS011;21086;44.780;17.194;2022-09-03T16:09:29;5.68;;;3.13;;
34876;SDS011;21086;44.780;17.194;2022-09-03T16:12:32;4.35;;;2.50;;
34876;SDS011;21086;44.780;17.194;2022-09-03T16:15:26;10.05;;;2.92;;
34876;SDS011;21086;44.780;17.194;2022-09-03T16:17:56;3.72;;;2.60;;
34876;SDS011;21086;44.780;17.194;2022-09-03T16:23:19;3.50;;;2.70;;
34876;SDS011;21086;44.780;17.194;2022-09-03T16:25:48;4.85;;;3.33;;
34876;SDS011;21086;44.780;17.194;2022-09-03T16:39:44;6.70;;;3.65;;
34876;SDS011;21086;44.780;17.194;2022-09-03T16:45:11;4.95;;;3.80;;
34876;SDS011;21086;44.780;17.194;2022-09-03T16:47:50;7.15;;;3.30;;
34876;SDS011;21086;44.780;17.194;2022-09-03T16:56:37;5.32;;;4.03;;
34876;SDS011;21086;44.780;17.194;2022-09-03T17:19:13;5.10;;;3.08;;
34876;SDS011;21086;44.780;17.194;2022-09-03T17:38:21;5.75;;;4.18;;
34876;SDS011;21086;44.780;17.194;2022-09-03T17:49:47;4.50;;;4.05;;
34876;SDS011;21086;44.780;17.194;2022-09-03T18:00:49;8.40;;;5.10;;
34876;SDS011;21086;44.780;17.194;2022-09-03T18:06:23;9.43;;;5.45;;
34876;SDS011;21086;44.780;17.194;2022-09-03T18:09:02;9.40;;;5.60;;
34876;SDS011;21086;44.780;17.194;2022-09-03T18:17:38;7.20;;;3.83;;
34876;SDS011;21086;44.780;17.194;2022-09-03T18:20:14;7.82;;;3.92;;
34876;SDS011;21086;44.780;17.194;2022-09-03T18:26:14;8.98;;;4.90;;
34876;SDS011;21086;44.780;17.194;2022-09-03T18:29:16;13.50;;;6.32;;
34876;SDS011;21086;44.780;17.194;2022-09-03T18:32:19;8.90;;;4.85;;
34876;SDS011;21086;44.780;17.194;2022-09-03T18:35:06;7.93;;;5.45;;
34876;SDS011;21086;44.780;17.194;2022-09-03T18:37:53;5.72;;;4.97;;
34876;SDS011;21086;44.780;17.194;2022-09-03T18:40:51;6.97;;;4.32;;
34876;SDS011;21086;44.780;17.194;2022-09-03T18:50:33;9.70;;;5.30;;
34876;SDS011;21086;44.780;17.194;2022-09-03T18:57:19;7.35;;;5.43;;
34876;SDS011;21086;44.780;17.194;2022-09-03T19:00:13;6.78;;;4.45;;
34876;SDS011;21086;44.780;17.194;2022-09-03T19:06:11;8.35;;;5.20;;
34876;SDS011;21086;44.780;17.194;2022-09-03T19:16:11;10.00;;;5.47;;
34876;SDS011;21086;44.780;17.194;2022-09-03T19:22:13;6.25;;;5.25;;
34876;SDS011;21086;44.780;17.194;2022-09-03T19:25:22;10.57;;;6.20;;
34876;SDS011;21086;44.780;17.194;2022-09-03T19:28:22;14.30;;;5.65;;
34876;SDS011;21086;44.780;17.194;2022-09-03T19:34:18;10.00;;;5.78;;
34876;SDS011;21086;44.780;17.194;2022-09-03T19:37:14;11.45;;;6.03;;
34876;SDS011;21086;44.780;17.194;2022-09-03T19:43:31;10.27;;;6.28;;
34876;SDS011;21086;44.780;17.194;2022-09-03T19:46:29;7.97;;;5.80;;
34876;SDS011;21086;44.780;17.194;2022-09-03T19:55:19;7.43;;;5.57;;
34876;SDS011;21086;44.780;17.194;2022-09-03T19:58:09;12.30;;;6.22;;
34876;SDS011;21086;44.780;17.194;2022-09-03T20:01:09;11.48;;;6.03;;
34876;SDS011;21086;44.780;17.194;2022-09-03T20:03:58;7.72;;;5.68;;
34876;SDS011;21086;44.780;17.194;2022-09-03T20:06:47;9.32;;;6.30;;
34876;SDS011;21086;44.780;17.194;2022-09-03T20:09:35;6.90;;;4.82;;
34876;SDS011;21086;44.780;17.194;2022-09-03T20:12:26;12.00;;;6.18;;
34876;SDS011;21086;44.780;17.194;2022-09-03T20:14:58;6.85;;;5.82;;
34876;SDS011;21086;44.780;17.194;2022-09-03T20:20:42;8.90;;;5.72;;
34876;SDS011;21086;44.780;17.194;2022-09-03T20:23:34;9.07;;;6.28;;
34876;SDS011;21086;44.780;17.194;2022-09-03T20:26:26;7.25;;;5.68;;
34876;SDS011;21086;44.780;17.194;2022-09-03T20:42:30;9.00;;;6.93;;
34876;SDS011;21086;44.780;17.194;2022-09-03T20:45:21;12.93;;;6.22;;
34876;SDS011;21086;44.780;17.194;2022-09-03T20:56:21;6.97;;;5.82;;
34876;SDS011;21086;44.780;17.194;2022-09-03T20:59:05;11.02;;;7.10;;
34876;SDS011;21086;44.780;17.194;2022-09-03T21:12:30;7.10;;;5.75;;
34876;SDS011;21086;44.780;17.194;2022-09-03T21:18:01;10.82;;;6.65;;
34876;SDS011;21086;44.780;17.194;2022-09-03T21:21:01;6.38;;;5.38;;
34876;SDS011;21086;44.780;17.194;2022-09-03T21:23:26;9.57;;;6.88;;
34876;SDS011;21086;44.780;17.194;2022-09-03T21:26:42;8.10;;;6.57;;
34876;SDS011;21086;44.780;17.194;2022-09-03T21:29:02;12.90;;;6.35;;
34876;SDS011;21086;44.780;17.194;2022-09-03T21:32:00;6.95;;;6.20;;
34876;SDS011;21086;44.780;17.194;2022-09-03T21:34:39;7.15;;;6.25;;
34876;SDS011;21086;44.780;17.194;2022-09-03T21:37:25;7.57;;;6.03;;
34876;SDS011;21086;44.780;17.194;2022-09-03T21:39:56;9.50;;;8.40;;
34876;SDS011;21086;44.780;17.194;2022-09-03T21:42:25;9.85;;;6.40;;
34876;SDS011;21086;44.780;17.194;2022-09-03T21:45:21;15.98;;;7.75;;
34876;SDS011;21086;44.780;17.194;2022-09-03T21:51:03;6.50;;;5.90;;
34876;SDS011;21086;44.780;17.194;2022-09-03T22:01:37;11.43;;;6.25;;
34876;SDS011;21086;44.780;17.194;2022-09-03T22:04:25;12.77;;;7.68;;
34876;SDS011;21086;44.780;17.194;2022-09-03T22:12:28;13.07;;;6.95;;